sensor_id;sensor_type;location;lat;lon;timestamp;P1;durP1;ratioP1;P2;durP2;ratioP2
26303;SDS011;70693;48.680;8.890;2023-12-07T00:00:50;4.80;;;3.45;;
26303;SDS011;70693;48.680;8.890;2023-12-07T00:03:16;4.15;;;3.20;;
26303;SDS011;70693;48.680;8.890;2023-12-07T00:05:41;5.00;;;3.30;;
26303;SDS011;70693;48.680;8.890;2023-12-07T00:08:10;5.13;;;3.30;;
26303;SDS011;70693;48.680;8.890;2023-12-07T00:10:36;4.75;;;3.35;;
26303;SDS011;70693;48.680;8.890;2023-12-07T00:13:01;5.65;;;3.47;;
26303;SDS011;70693;48.680;8.890;2023-12-07T00:15:27;3.88;;;2.92;;
26303;SDS011;70693;48.680;8.890;2023-12-07T00:17:53;6.53;;;3.83;;
26303;SDS011;70693;48.680;8.890;2023-12-07T00:20:18;4.93;;;3.30;;
26303;SDS011;70693;48.680;8.890;2023-12-07T00:22:44;4.30;;;3.25;;
26303;SDS011;70693;48.680;8.890;2023-12-07T00:25:10;4.65;;;3.42;;
26303;SDS011;70693;48.680;8.890;2023-12-07T00:27:36;4.53;;;2.83;;
26303;SDS011;70693;48.680;8.890;2023-12-07T00:30:01;4.53;;;3.33;;
26303;SDS011;70693;48.680;8.890;2023-12-07T00:32:28;3.92;;;3.38;;
26303;SDS011;70693;48.680;8.890;2023-12-07T00:34:54;4.25;;;3.13;;
26303;SDS011;70693;48.680;8.890;2023-12-07T00:37:19;4.13;;;3.28;;
26303;SDS011;70693;48.680;8.890;2023-12-07T00:39:45;5.85;;;3.30;;
26303;SDS011;70693;48.680;8.890;2023-12-07T00:42:11;5.95;;;3.25;;
26303;SDS011;70693;48.680;8.890;2023-12-07T00:44:39;5.22;;;3.15;;
26303;SDS011;70693;48.680;8.890;2023-12-07T00:47:05;4.68;;;3.30;;
26303;SDS011;70693;48.680;8.890;2023-12-07T00:49:31;3.17;;;2.60;;
26303;SDS011;70693;48.680;8.890;2023-12-07T00:51:57;4.63;;;2.88;;
26303;SDS011;70693;48.680;8.890;2023-12-07T00:54:22;3.85;;;2.97;;
26303;SDS011;70693;48.680;8.890;2023-12-07T00:56:48;3.80;;;2.80;;
26303;SDS011;70693;48.680;8.890;2023-12-07T00:59:13;3.40;;;2.58;;
26303;SDS011;70693;48.680;8.890;2023-12-07T01:01:39;3.67;;;2.78;;
26303;SDS011;70693;48.680;8.890;2023-12-07T01:04:05;3.90;;;2.55;;
26303;SDS011;70693;48.680;8.890;2023-12-07T01:06:31;4.15;;;2.72;;
26303;SDS011;70693;48.680;8.890;2023-12-07T01:08:56;4.07;;;2.78;;
26303;SDS011;70693;48.680;8.890;2023-12-07T01:11:22;4.43;;;2.90;;
26303;SDS011;70693;48.680;8.890;2023-12-07T01:13:48;4.47;;;2.97;;
26303;SDS011;70693;48.680;8.890;2023-12-07T01:16:14;4.32;;;3.00;;
26303;SDS011;70693;48.680;8.890;2023-12-07T01:18:39;3.63;;;2.70;;
26303;SDS011;70693;48.680;8.890;2023-12-07T01:21:05;3.40;;;2.10;;
26303;SDS011;70693;48.680;8.890;2023-12-07T01:23:31;3.60;;;2.80;;
26303;SDS011;70693;48.680;8.890;2023-12-07T01:25:57;3.40;;;2.70;;
26303;SDS011;70693;48.680;8.890;2023-12-07T01:28:22;3.60;;;2.70;;
26303;SDS011;70693;48.680;8.890;2023-12-07T01:30:48;4.05;;;2.63;;
26303;SDS011;70693;48.680;8.890;2023-12-07T01:33:14;3.97;;;2.80;;
26303;SDS011;70693;48.680;8.890;2023-12-07T01:35:40;3.65;;;2.60;;
26303;SDS011;70693;48.680;8.890;2023-12-07T01:38:06;3.55;;;2.70;;
26303;SDS011;70693;48.680;8.890;2023-12-07T01:40:31;4.80;;;2.80;;
26303;SDS011;70693;48.680;8.890;2023-12-07T01:42:57;3.50;;;2.47;;
26303;SDS011;70693;48.680;8.890;2023-12-07T01:45:22;3.75;;;2.47;;
26303;SDS011;70693;48.680;8.890;2023-12-07T01:47:49;4.20;;;2.78;;
26303;SDS011;70693;48.680;8.890;2023-12-07T01:50:16;3.65;;;2.38;;
26303;SDS011;70693;48.680;8.890;2023-12-07T01:52:48;3.67;;;2.80;;
26303;SDS011;70693;48.680;8.890;2023-12-07T01:55:22;7.72;;;3.60;;
26303;SDS011;70693;48.680;8.890;2023-12-07T01:57:50;7.88;;;4.30;;
26303;SDS011;70693;48.680;8.890;2023-12-07T02:00:15;7.43;;;3.88;;
26303;SDS011;70693;48.680;8.890;2023-12-07T02:02:43;6.55;;;3.35;;
26303;SDS011;70693;48.680;8.890;2023-12-07T02:05:09;7.45;;;3.45;;
26303;SDS011;70693;48.680;8.890;2023-12-07T02:07:36;5.47;;;3.05;;
26303;SDS011;70693;48.680;8.890;2023-12-07T02:10:02;6.68;;;3.10;;
26303;SDS011;70693;48.680;8.890;2023-12-07T02:12:28;5.40;;;3.15;;
26303;SDS011;70693;48.680;8.890;2023-12-07T02:14:54;6.00;;;3.20;;
26303;SDS011;70693;48.680;8.890;2023-12-07T02:17:27;5.13;;;3.15;;
26303;SDS011;70693;48.680;8.890;2023-12-07T02:22:54;6.35;;;3.42;;
26303;SDS011;70693;48.680;8.890;2023-12-07T02:25:26;6.75;;;3.20;;
26303;SDS011;70693;48.680;8.890;2023-12-07T02:27:57;4.80;;;2.92;;
26303;SDS011;70693;48.680;8.890;2023-12-07T02:30:23;7.85;;;3.50;;
26303;SDS011;70693;48.680;8.890;2023-12-07T02:32:48;6.25;;;3.35;;
26303;SDS011;70693;48.680;8.890;2023-12-07T02:35:14;4.70;;;3.05;;
26303;SDS011;70693;48.680;8.890;2023-12-07T02:37:44;4.95;;;3.40;;
26303;SDS011;70693;48.680;8.890;2023-12-07T02:40:12;5.07;;;2.80;;
26303;SDS011;70693;48.680;8.890;2023-12-07T02:42:40;4.72;;;2.80;;
26303;SDS011;70693;48.680;8.890;2023-12-07T02:45:08;4.22;;;2.53;;
26303;SDS011;70693;48.680;8.890;2023-12-07T02:47:34;5.22;;;2.65;;
26303;SDS011;70693;48.680;8.890;2023-12-07T02:50:00;3.97;;;2.58;;
26303;SDS011;70693;48.680;8.890;2023-12-07T02:52:27;6.05;;;2.83;;
26303;SDS011;70693;48.680;8.890;2023-12-07T02:54:53;5.05;;;3.05;;
26303;SDS011;70693;48.680;8.890;2023-12-07T02:57:19;6.63;;;3.40;;
26303;SDS011;70693;48.680;8.890;2023-12-07T02:59:45;4.85;;;2.72;;
26303;SDS011;70693;48.680;8.890;2023-12-07T03:02:10;5.60;;;3.03;;
26303;SDS011;70693;48.680;8.890;2023-12-07T03:04:36;4.28;;;2.83;;
26303;SDS011;70693;48.680;8.890;2023-12-07T03:07:01;3.88;;;2.55;;
26303;SDS011;70693;48.680;8.890;2023-12-07T03:09:27;3.92;;;2.67;;
26303;SDS011;70693;48.680;8.890;2023-12-07T03:11:53;4.43;;;2.63;;
26303;SDS011;70693;48.680;8.890;2023-12-07T03:14:18;5.75;;;2.67;;
26303;SDS011;70693;48.680;8.890;2023-12-07T03:16:44;5.47;;;3.20;;
26303;SDS011;70693;48.680;8.890;2023-12-07T03:19:10;5.43;;;2.88;;
26303;SDS011;70693;48.680;8.890;2023-12-07T03:21:39;4.32;;;2.75;;
26303;SDS011;70693;48.680;8.890;2023-12-07T03:24:06;4.32;;;3.03;;
26303;SDS011;70693;48.680;8.890;2023-12-07T03:26:36;5.15;;;2.92;;
26303;SDS011;70693;48.680;8.890;2023-12-07T03:29:02;5.78;;;3.10;;
26303;SDS011;70693;48.680;8.890;2023-12-07T03:31:27;4.35;;;2.60;;
26303;SDS011;70693;48.680;8.890;2023-12-07T03:33:54;6.25;;;3.00;;
26303;SDS011;70693;48.680;8.890;2023-12-07T03:36:20;4.43;;;2.65;;
26303;SDS011;70693;48.680;8.890;2023-12-07T03:38:45;5.75;;;2.92;;
26303;SDS011;70693;48.680;8.890;2023-12-07T03:41:11;4.68;;;2.60;;
26303;SDS011;70693;48.680;8.890;2023-12-07T03:43:37;4.47;;;2.42;;
26303;SDS011;70693;48.680;8.890;2023-12-07T03:46:06;4.28;;;2.53;;
26303;SDS011;70693;48.680;8.890;2023-12-07T03:48:32;4.90;;;2.95;;
26303;SDS011;70693;48.680;8.890;2023-12-07T03:50:59;3.88;;;2.50;;
26303;SDS011;70693;48.680;8.890;2023-12-07T03:53:25;3.88;;;2.45;;
26303;SDS011;70693;48.680;8.890;2023-12-07T03:55:50;5.22;;;3.00;;
26303;SDS011;70693;48.680;8.890;2023-12-07T03:58:16;3.30;;;2.10;;
26303;SDS011;70693;48.680;8.890;2023-12-07T04:00:42;3.85;;;2.10;;
26303;SDS011;70693;48.680;8.890;2023-12-07T04:03:09;3.08;;;2.17;;
26303;SDS011;70693;48.680;8.890;2023-12-07T04:05:34;3.33;;;2.60;;
26303;SDS011;70693;48.680;8.890;2023-12-07T04:08:00;3.45;;;2.35;;
26303;SDS011;70693;48.680;8.890;2023-12-07T04:10:26;4.32;;;2.80;;
26303;SDS011;70693;48.680;8.890;2023-12-07T04:12:51;4.00;;;2.33;;
26303;SDS011;70693;48.680;8.890;2023-12-07T04:15:20;3.92;;;2.58;;
26303;SDS011;70693;48.680;8.890;2023-12-07T04:17:46;3.22;;;2.53;;
26303;SDS011;70693;48.680;8.890;2023-12-07T04:20:12;3.58;;;2.65;;
26303;SDS011;70693;48.680;8.890;2023-12-07T04:22:40;3.35;;;2.40;;
26303;SDS011;70693;48.680;8.890;2023-12-07T04:25:06;3.42;;;2.38;;
26303;SDS011;70693;48.680;8.890;2023-12-07T04:27:35;2.95;;;2.08;;
26303;SDS011;70693;48.680;8.890;2023-12-07T04:30:01;4.72;;;2.50;;
26303;SDS011;70693;48.680;8.890;2023-12-07T04:32:28;2.90;;;1.98;;
26303;SDS011;70693;48.680;8.890;2023-12-07T04:34:54;4.30;;;2.63;;
26303;SDS011;70693;48.680;8.890;2023-12-07T04:37:20;2.95;;;2.38;;
26303;SDS011;70693;48.680;8.890;2023-12-07T04:39:46;4.00;;;2.28;;
26303;SDS011;70693;48.680;8.890;2023-12-07T04:42:11;2.90;;;2.30;;
26303;SDS011;70693;48.680;8.890;2023-12-07T04:44:37;3.60;;;2.42;;
26303;SDS011;70693;48.680;8.890;2023-12-07T04:47:02;4.20;;;2.50;;
26303;SDS011;70693;48.680;8.890;2023-12-07T04:49:28;2.83;;;2.30;;
26303;SDS011;70693;48.680;8.890;2023-12-07T04:51:54;4.20;;;2.53;;
26303;SDS011;70693;48.680;8.890;2023-12-07T04:54:20;3.25;;;2.25;;
26303;SDS011;70693;48.680;8.890;2023-12-07T04:56:45;3.30;;;2.28;;
26303;SDS011;70693;48.680;8.890;2023-12-07T04:59:11;3.08;;;2.03;;
26303;SDS011;70693;48.680;8.890;2023-12-07T05:01:37;2.90;;;2.08;;
26303;SDS011;70693;48.680;8.890;2023-12-07T05:04:06;4.05;;;2.67;;
26303;SDS011;70693;48.680;8.890;2023-12-07T05:06:31;12.65;;;4.45;;
26303;SDS011;70693;48.680;8.890;2023-12-07T05:08:57;15.68;;;5.45;;
26303;SDS011;70693;48.680;8.890;2023-12-07T05:11:23;13.57;;;4.57;;
26303;SDS011;70693;48.680;8.890;2023-12-07T05:13:49;8.32;;;3.35;;
26303;SDS011;70693;48.680;8.890;2023-12-07T05:16:14;7.35;;;2.95;;
26303;SDS011;70693;48.680;8.890;2023-12-07T05:18:40;8.10;;;3.65;;
26303;SDS011;70693;48.680;8.890;2023-12-07T05:21:06;9.13;;;3.55;;
26303;SDS011;70693;48.680;8.890;2023-12-07T05:23:32;7.40;;;3.33;;
26303;SDS011;70693;48.680;8.890;2023-12-07T05:25:58;7.93;;;3.53;;
26303;SDS011;70693;48.680;8.890;2023-12-07T05:28:25;8.48;;;3.50;;
26303;SDS011;70693;48.680;8.890;2023-12-07T05:30:50;9.10;;;3.67;;
26303;SDS011;70693;48.680;8.890;2023-12-07T05:33:17;7.25;;;3.28;;
26303;SDS011;70693;48.680;8.890;2023-12-07T05:35:44;6.30;;;3.05;;
26303;SDS011;70693;48.680;8.890;2023-12-07T05:38:10;8.32;;;3.70;;
26303;SDS011;70693;48.680;8.890;2023-12-07T05:40:35;7.70;;;3.28;;
26303;SDS011;70693;48.680;8.890;2023-12-07T05:43:01;7.10;;;3.47;;
26303;SDS011;70693;48.680;8.890;2023-12-07T05:45:27;7.80;;;3.38;;
26303;SDS011;70693;48.680;8.890;2023-12-07T05:47:54;8.77;;;3.85;;
26303;SDS011;70693;48.680;8.890;2023-12-07T05:50:19;6.97;;;3.13;;
26303;SDS011;70693;48.680;8.890;2023-12-07T05:52:45;6.97;;;3.50;;
26303;SDS011;70693;48.680;8.890;2023-12-07T05:55:11;5.90;;;3.08;;
26303;SDS011;70693;48.680;8.890;2023-12-07T05:57:37;7.10;;;3.50;;
26303;SDS011;70693;48.680;8.890;2023-12-07T06:00:04;8.32;;;3.63;;
26303;SDS011;70693;48.680;8.890;2023-12-07T06:02:34;5.68;;;3.55;;
26303;SDS011;70693;48.680;8.890;2023-12-07T06:05:00;7.18;;;3.45;;
26303;SDS011;70693;48.680;8.890;2023-12-07T06:07:25;6.75;;;3.72;;
26303;SDS011;70693;48.680;8.890;2023-12-07T06:09:51;7.63;;;4.22;;
26303;SDS011;70693;48.680;8.890;2023-12-07T06:12:17;6.78;;;3.58;;
26303;SDS011;70693;48.680;8.890;2023-12-07T06:14:42;7.38;;;4.00;;
26303;SDS011;70693;48.680;8.890;2023-12-07T06:17:08;8.13;;;4.30;;
26303;SDS011;70693;48.680;8.890;2023-12-07T06:19:33;7.90;;;4.10;;
26303;SDS011;70693;48.680;8.890;2023-12-07T06:21:59;6.85;;;3.90;;
26303;SDS011;70693;48.680;8.890;2023-12-07T06:24:25;6.38;;;3.90;;
26303;SDS011;70693;48.680;8.890;2023-12-07T06:26:51;9.98;;;4.63;;
26303;SDS011;70693;48.680;8.890;2023-12-07T06:29:17;6.28;;;3.83;;
26303;SDS011;70693;48.680;8.890;2023-12-07T06:31:43;8.07;;;3.92;;
26303;SDS011;70693;48.680;8.890;2023-12-07T06:34:09;7.82;;;4.03;;
26303;SDS011;70693;48.680;8.890;2023-12-07T06:36:35;6.47;;;3.70;;
26303;SDS011;70693;48.680;8.890;2023-12-07T06:39:02;5.78;;;4.10;;
26303;SDS011;70693;48.680;8.890;2023-12-07T06:41:28;6.97;;;3.85;;
26303;SDS011;70693;48.680;8.890;2023-12-07T06:43:54;6.32;;;4.03;;
26303;SDS011;70693;48.680;8.890;2023-12-07T06:46:20;7.72;;;3.90;;
26303;SDS011;70693;48.680;8.890;2023-12-07T06:48:45;7.25;;;4.03;;
26303;SDS011;70693;48.680;8.890;2023-12-07T06:51:11;7.53;;;4.13;;
26303;SDS011;70693;48.680;8.890;2023-12-07T06:53:39;6.50;;;4.00;;
26303;SDS011;70693;48.680;8.890;2023-12-07T06:56:06;6.43;;;3.70;;
26303;SDS011;70693;48.680;8.890;2023-12-07T06:58:32;5.78;;;4.07;;
26303;SDS011;70693;48.680;8.890;2023-12-07T07:00:58;6.97;;;4.00;;
26303;SDS011;70693;48.680;8.890;2023-12-07T07:03:23;6.82;;;3.88;;
26303;SDS011;70693;48.680;8.890;2023-12-07T07:05:49;5.65;;;3.30;;
26303;SDS011;70693;48.680;8.890;2023-12-07T07:08:15;6.65;;;3.65;;
26303;SDS011;70693;48.680;8.890;2023-12-07T07:10:41;7.95;;;3.85;;
26303;SDS011;70693;48.680;8.890;2023-12-07T07:13:06;5.47;;;4.00;;
26303;SDS011;70693;48.680;8.890;2023-12-07T07:15:32;7.63;;;3.92;;
26303;SDS011;70693;48.680;8.890;2023-12-07T07:17:58;7.63;;;3.88;;
26303;SDS011;70693;48.680;8.890;2023-12-07T07:20:24;6.65;;;4.03;;
26303;SDS011;70693;48.680;8.890;2023-12-07T07:22:50;5.95;;;3.58;;
26303;SDS011;70693;48.680;8.890;2023-12-07T07:25:16;7.93;;;4.03;;
26303;SDS011;70693;48.680;8.890;2023-12-07T07:27:44;6.10;;;4.28;;
26303;SDS011;70693;48.680;8.890;2023-12-07T07:30:12;7.57;;;4.10;;
26303;SDS011;70693;48.680;8.890;2023-12-07T07:32:39;6.38;;;4.30;;
26303;SDS011;70693;48.680;8.890;2023-12-07T07:35:05;6.70;;;3.85;;
26303;SDS011;70693;48.680;8.890;2023-12-07T07:37:31;6.75;;;3.90;;
26303;SDS011;70693;48.680;8.890;2023-12-07T07:39:56;6.07;;;4.07;;
26303;SDS011;70693;48.680;8.890;2023-12-07T07:42:22;7.72;;;3.83;;
26303;SDS011;70693;48.680;8.890;2023-12-07T07:44:47;5.68;;;3.72;;
26303;SDS011;70693;48.680;8.890;2023-12-07T07:47:13;6.45;;;4.47;;
26303;SDS011;70693;48.680;8.890;2023-12-07T07:49:39;5.55;;;3.90;;
26303;SDS011;70693;48.680;8.890;2023-12-07T07:52:04;7.07;;;3.70;;
26303;SDS011;70693;48.680;8.890;2023-12-07T07:54:30;5.88;;;3.70;;
26303;SDS011;70693;48.680;8.890;2023-12-07T07:56:56;5.90;;;4.18;;
26303;SDS011;70693;48.680;8.890;2023-12-07T07:59:21;5.25;;;3.78;;
26303;SDS011;70693;48.680;8.890;2023-12-07T08:01:47;5.68;;;3.95;;
26303;SDS011;70693;48.680;8.890;2023-12-07T08:04:13;5.25;;;3.50;;
26303;SDS011;70693;48.680;8.890;2023-12-07T08:06:40;5.82;;;3.53;;
26303;SDS011;70693;48.680;8.890;2023-12-07T08:09:07;4.70;;;3.33;;
26303;SDS011;70693;48.680;8.890;2023-12-07T08:11:34;4.80;;;3.70;;
26303;SDS011;70693;48.680;8.890;2023-12-07T08:13:59;7.03;;;3.70;;
26303;SDS011;70693;48.680;8.890;2023-12-07T08:16:25;6.15;;;3.80;;
26303;SDS011;70693;48.680;8.890;2023-12-07T08:18:52;6.00;;;3.50;;
26303;SDS011;70693;48.680;8.890;2023-12-07T08:21:18;5.55;;;3.45;;
26303;SDS011;70693;48.680;8.890;2023-12-07T08:23:45;5.32;;;3.58;;
26303;SDS011;70693;48.680;8.890;2023-12-07T08:26:10;5.57;;;3.80;;
26303;SDS011;70693;48.680;8.890;2023-12-07T08:28:39;5.28;;;3.47;;
26303;SDS011;70693;48.680;8.890;2023-12-07T08:31:08;4.78;;;3.20;;
26303;SDS011;70693;48.680;8.890;2023-12-07T08:33:34;5.43;;;3.75;;
26303;SDS011;70693;48.680;8.890;2023-12-07T08:36:00;5.93;;;3.47;;
26303;SDS011;70693;48.680;8.890;2023-12-07T08:38:29;5.68;;;3.22;;
26303;SDS011;70693;48.680;8.890;2023-12-07T08:40:55;6.28;;;3.53;;
26303;SDS011;70693;48.680;8.890;2023-12-07T08:43:21;5.53;;;3.38;;
26303;SDS011;70693;48.680;8.890;2023-12-07T08:45:50;5.35;;;3.42;;
26303;SDS011;70693;48.680;8.890;2023-12-07T08:48:17;5.20;;;3.33;;
26303;SDS011;70693;48.680;8.890;2023-12-07T08:50:44;4.97;;;3.15;;
26303;SDS011;70693;48.680;8.890;2023-12-07T08:53:09;4.47;;;3.38;;
26303;SDS011;70693;48.680;8.890;2023-12-07T08:55:35;5.20;;;3.40;;
26303;SDS011;70693;48.680;8.890;2023-12-07T08:58:00;5.43;;;3.33;;
26303;SDS011;70693;48.680;8.890;2023-12-07T09:00:28;4.65;;;3.00;;
26303;SDS011;70693;48.680;8.890;2023-12-07T09:02:57;5.45;;;3.58;;
26303;SDS011;70693;48.680;8.890;2023-12-07T09:05:23;5.28;;;3.35;;
26303;SDS011;70693;48.680;8.890;2023-12-07T09:07:50;5.88;;;3.50;;
26303;SDS011;70693;48.680;8.890;2023-12-07T09:10:17;5.32;;;3.10;;
26303;SDS011;70693;48.680;8.890;2023-12-07T09:12:43;5.57;;;4.20;;
26303;SDS011;70693;48.680;8.890;2023-12-07T09:15:09;6.53;;;3.97;;
26303;SDS011;70693;48.680;8.890;2023-12-07T09:17:35;4.35;;;3.38;;
26303;SDS011;70693;48.680;8.890;2023-12-07T09:20:03;5.75;;;3.42;;
26303;SDS011;70693;48.680;8.890;2023-12-07T09:22:30;5.40;;;3.75;;
26303;SDS011;70693;48.680;8.890;2023-12-07T09:24:55;7.15;;;3.70;;
26303;SDS011;70693;48.680;8.890;2023-12-07T09:27:21;4.57;;;3.22;;
26303;SDS011;70693;48.680;8.890;2023-12-07T09:29:48;6.00;;;3.78;;
26303;SDS011;70693;48.680;8.890;2023-12-07T09:32:13;5.22;;;3.65;;
26303;SDS011;70693;48.680;8.890;2023-12-07T09:34:39;5.70;;;3.33;;
26303;SDS011;70693;48.680;8.890;2023-12-07T09:37:08;4.85;;;3.20;;
26303;SDS011;70693;48.680;8.890;2023-12-07T09:39:35;4.18;;;2.85;;
26303;SDS011;70693;48.680;8.890;2023-12-07T09:42:01;5.10;;;3.20;;
26303;SDS011;70693;48.680;8.890;2023-12-07T09:44:27;4.13;;;3.05;;
26303;SDS011;70693;48.680;8.890;2023-12-07T09:46:53;4.15;;;3.25;;
26303;SDS011;70693;48.680;8.890;2023-12-07T09:49:19;4.50;;;3.10;;
26303;SDS011;70693;48.680;8.890;2023-12-07T09:51:46;5.70;;;3.33;;
26303;SDS011;70693;48.680;8.890;2023-12-07T09:54:14;5.55;;;3.25;;
26303;SDS011;70693;48.680;8.890;2023-12-07T09:56:40;4.90;;;3.33;;
26303;SDS011;70693;48.680;8.890;2023-12-07T09:59:06;3.67;;;2.83;;
26303;SDS011;70693;48.680;8.890;2023-12-07T10:01:32;5.10;;;2.80;;
26303;SDS011;70693;48.680;8.890;2023-12-07T10:06:45;4.20;;;2.70;;
26303;SDS011;70693;48.680;8.890;2023-12-07T10:09:12;4.78;;;2.90;;
26303;SDS011;70693;48.680;8.890;2023-12-07T10:11:38;3.90;;;3.10;;
26303;SDS011;70693;48.680;8.890;2023-12-07T10:14:05;4.10;;;2.97;;
26303;SDS011;70693;48.680;8.890;2023-12-07T10:16:32;4.38;;;3.08;;
26303;SDS011;70693;48.680;8.890;2023-12-07T10:19:21;3.58;;;2.70;;
26303;SDS011;70693;48.680;8.890;2023-12-07T10:21:49;3.90;;;2.60;;
26303;SDS011;70693;48.680;8.890;2023-12-07T10:24:22;3.90;;;3.08;;
26303;SDS011;70693;48.680;8.890;2023-12-07T10:26:51;4.00;;;3.17;;
26303;SDS011;70693;48.680;8.890;2023-12-07T10:29:18;4.28;;;3.05;;
26303;SDS011;70693;48.680;8.890;2023-12-07T10:31:45;3.58;;;2.80;;
26303;SDS011;70693;48.680;8.890;2023-12-07T10:34:12;4.57;;;3.08;;
26303;SDS011;70693;48.680;8.890;2023-12-07T10:36:38;4.68;;;3.28;;
26303;SDS011;70693;48.680;8.890;2023-12-07T10:39:03;5.13;;;3.13;;
26303;SDS011;70693;48.680;8.890;2023-12-07T10:41:33;4.10;;;2.90;;
26303;SDS011;70693;48.680;8.890;2023-12-07T10:44:00;4.68;;;3.00;;
26303;SDS011;70693;48.680;8.890;2023-12-07T10:46:28;3.45;;;2.70;;
26303;SDS011;70693;48.680;8.890;2023-12-07T10:49:01;4.40;;;3.10;;
26303;SDS011;70693;48.680;8.890;2023-12-07T10:51:49;3.88;;;2.30;;
26303;SDS011;70693;48.680;8.890;2023-12-07T10:54:22;3.03;;;2.70;;
26303;SDS011;70693;48.680;8.890;2023-12-07T10:56:49;4.07;;;2.83;;
26303;SDS011;70693;48.680;8.890;2023-12-07T10:59:16;5.63;;;2.70;;
26303;SDS011;70693;48.680;8.890;2023-12-07T11:01:42;3.50;;;2.67;;
26303;SDS011;70693;48.680;8.890;2023-12-07T11:04:12;2.92;;;2.33;;
26303;SDS011;70693;48.680;8.890;2023-12-07T11:06:41;3.53;;;2.53;;
26303;SDS011;70693;48.680;8.890;2023-12-07T11:09:09;3.55;;;2.28;;
26303;SDS011;70693;48.680;8.890;2023-12-07T11:11:44;3.70;;;2.60;;
26303;SDS011;70693;48.680;8.890;2023-12-07T11:14:14;2.80;;;1.95;;
26303;SDS011;70693;48.680;8.890;2023-12-07T11:16:42;3.65;;;2.25;;
26303;SDS011;70693;48.680;8.890;2023-12-07T11:21:58;4.07;;;2.40;;
26303;SDS011;70693;48.680;8.890;2023-12-07T11:24:25;2.60;;;2.10;;
26303;SDS011;70693;48.680;8.890;2023-12-07T11:26:57;3.25;;;2.47;;
26303;SDS011;70693;48.680;8.890;2023-12-07T11:29:28;3.20;;;2.22;;
26303;SDS011;70693;48.680;8.890;2023-12-07T11:32:04;3.15;;;2.08;;
26303;SDS011;70693;48.680;8.890;2023-12-07T11:34:41;3.15;;;2.35;;
26303;SDS011;70693;48.680;8.890;2023-12-07T11:37:07;3.83;;;2.58;;
26303;SDS011;70693;48.680;8.890;2023-12-07T11:39:35;3.22;;;2.10;;
26303;SDS011;70693;48.680;8.890;2023-12-07T11:42:07;2.70;;;2.08;;
26303;SDS011;70693;48.680;8.890;2023-12-07T11:44:39;3.67;;;2.10;;
26303;SDS011;70693;48.680;8.890;2023-12-07T11:47:06;4.38;;;2.38;;
26303;SDS011;70693;48.680;8.890;2023-12-07T11:49:32;3.03;;;2.10;;
26303;SDS011;70693;48.680;8.890;2023-12-07T11:51:58;3.08;;;2.17;;
26303;SDS011;70693;48.680;8.890;2023-12-07T11:54:25;3.47;;;2.20;;
26303;SDS011;70693;48.680;8.890;2023-12-07T11:56:54;3.58;;;2.00;;
26303;SDS011;70693;48.680;8.890;2023-12-07T11:59:21;3.15;;;2.10;;
26303;SDS011;70693;48.680;8.890;2023-12-07T12:01:52;2.83;;;1.95;;
26303;SDS011;70693;48.680;8.890;2023-12-07T12:04:18;2.65;;;2.10;;
26303;SDS011;70693;48.680;8.890;2023-12-07T12:06:44;2.20;;;1.75;;
26303;SDS011;70693;48.680;8.890;2023-12-07T12:09:13;2.67;;;2.00;;
26303;SDS011;70693;48.680;8.890;2023-12-07T12:11:49;3.15;;;1.90;;
26303;SDS011;70693;48.680;8.890;2023-12-07T12:14:15;3.05;;;1.92;;
26303;SDS011;70693;48.680;8.890;2023-12-07T12:16:42;3.95;;;2.28;;
26303;SDS011;70693;48.680;8.890;2023-12-07T12:19:16;3.35;;;2.05;;
26303;SDS011;70693;48.680;8.890;2023-12-07T12:21:42;3.50;;;2.10;;
26303;SDS011;70693;48.680;8.890;2023-12-07T12:24:08;2.63;;;2.00;;
26303;SDS011;70693;48.680;8.890;2023-12-07T12:26:39;2.85;;;2.00;;
26303;SDS011;70693;48.680;8.890;2023-12-07T12:29:07;2.58;;;1.73;;
26303;SDS011;70693;48.680;8.890;2023-12-07T12:31:36;3.38;;;1.90;;
26303;SDS011;70693;48.680;8.890;2023-12-07T12:34:03;2.80;;;2.00;;
26303;SDS011;70693;48.680;8.890;2023-12-07T12:36:32;3.55;;;2.15;;
26303;SDS011;70693;48.680;8.890;2023-12-07T12:38:58;2.70;;;1.92;;
26303;SDS011;70693;48.680;8.890;2023-12-07T12:41:23;2.38;;;1.60;;
26303;SDS011;70693;48.680;8.890;2023-12-07T12:43:49;3.38;;;1.85;;
26303;SDS011;70693;48.680;8.890;2023-12-07T12:46:16;2.05;;;1.65;;
26303;SDS011;70693;48.680;8.890;2023-12-07T12:51:21;2.47;;;1.80;;
26303;SDS011;70693;48.680;8.890;2023-12-07T12:53:50;2.95;;;1.60;;
26303;SDS011;70693;48.680;8.890;2023-12-07T12:56:16;2.28;;;1.77;;
26303;SDS011;70693;48.680;8.890;2023-12-07T12:58:44;2.72;;;1.90;;
26303;SDS011;70693;48.680;8.890;2023-12-07T13:01:10;3.08;;;1.95;;
26303;SDS011;70693;48.680;8.890;2023-12-07T13:03:36;2.58;;;1.65;;
26303;SDS011;70693;48.680;8.890;2023-12-07T13:06:01;4.18;;;1.85;;
26303;SDS011;70693;48.680;8.890;2023-12-07T13:08:28;2.40;;;1.67;;
26303;SDS011;70693;48.680;8.890;2023-12-07T13:10:53;2.65;;;1.80;;
26303;SDS011;70693;48.680;8.890;2023-12-07T13:13:19;2.55;;;1.83;;
26303;SDS011;70693;48.680;8.890;2023-12-07T13:15:45;2.13;;;1.58;;
26303;SDS011;70693;48.680;8.890;2023-12-07T13:18:11;2.45;;;1.83;;
26303;SDS011;70693;48.680;8.890;2023-12-07T13:20:37;1.98;;;1.52;;
26303;SDS011;70693;48.680;8.890;2023-12-07T13:23:04;2.25;;;1.20;;
26303;SDS011;70693;48.680;8.890;2023-12-07T13:25:29;2.92;;;1.65;;
26303;SDS011;70693;48.680;8.890;2023-12-07T13:27:55;1.95;;;1.50;;
26303;SDS011;70693;48.680;8.890;2023-12-07T13:30:21;2.03;;;1.55;;
26303;SDS011;70693;48.680;8.890;2023-12-07T13:32:47;2.97;;;1.60;;
26303;SDS011;70693;48.680;8.890;2023-12-07T13:35:14;2.60;;;1.50;;
26303;SDS011;70693;48.680;8.890;2023-12-07T13:37:40;2.70;;;1.67;;
26303;SDS011;70693;48.680;8.890;2023-12-07T13:40:06;2.08;;;1.40;;
26303;SDS011;70693;48.680;8.890;2023-12-07T13:42:35;2.40;;;1.52;;
26303;SDS011;70693;48.680;8.890;2023-12-07T13:45:02;2.53;;;1.80;;
26303;SDS011;70693;48.680;8.890;2023-12-07T13:47:28;2.42;;;1.63;;
26303;SDS011;70693;48.680;8.890;2023-12-07T13:49:57;2.67;;;1.40;;
26303;SDS011;70693;48.680;8.890;2023-12-07T13:52:23;2.15;;;1.65;;
26303;SDS011;70693;48.680;8.890;2023-12-07T13:54:49;2.10;;;1.60;;
26303;SDS011;70693;48.680;8.890;2023-12-07T13:57:15;2.67;;;1.60;;
26303;SDS011;70693;48.680;8.890;2023-12-07T13:59:41;2.17;;;1.50;;
26303;SDS011;70693;48.680;8.890;2023-12-07T14:02:07;1.75;;;1.40;;
26303;SDS011;70693;48.680;8.890;2023-12-07T14:04:33;2.25;;;1.50;;
26303;SDS011;70693;48.680;8.890;2023-12-07T14:07:12;2.20;;;1.50;;
26303;SDS011;70693;48.680;8.890;2023-12-07T14:09:41;1.83;;;1.38;;
26303;SDS011;70693;48.680;8.890;2023-12-07T14:12:09;2.30;;;1.70;;
26303;SDS011;70693;48.680;8.890;2023-12-07T14:14:38;3.45;;;1.40;;
26303;SDS011;70693;48.680;8.890;2023-12-07T14:17:04;2.55;;;1.60;;
26303;SDS011;70693;48.680;8.890;2023-12-07T14:19:30;1.80;;;1.30;;
26303;SDS011;70693;48.680;8.890;2023-12-07T14:21:56;1.90;;;1.30;;
26303;SDS011;70693;48.680;8.890;2023-12-07T14:24:22;2.38;;;1.50;;
26303;SDS011;70693;48.680;8.890;2023-12-07T14:26:49;1.70;;;1.50;;
26303;SDS011;70693;48.680;8.890;2023-12-07T14:29:15;2.65;;;1.60;;
26303;SDS011;70693;48.680;8.890;2023-12-07T14:31:43;2.53;;;1.35;;
26303;SDS011;70693;48.680;8.890;2023-12-07T14:34:09;2.33;;;1.50;;
26303;SDS011;70693;48.680;8.890;2023-12-07T14:36:35;1.73;;;1.40;;
26303;SDS011;70693;48.680;8.890;2023-12-07T14:39:03;2.67;;;1.65;;
26303;SDS011;70693;48.680;8.890;2023-12-07T14:41:31;2.65;;;1.67;;
26303;SDS011;70693;48.680;8.890;2023-12-07T14:43:57;1.80;;;1.48;;
26303;SDS011;70693;48.680;8.890;2023-12-07T14:46:23;2.28;;;1.50;;
26303;SDS011;70693;48.680;8.890;2023-12-07T14:48:49;2.85;;;1.73;;
26303;SDS011;70693;48.680;8.890;2023-12-07T14:51:19;3.53;;;1.60;;
26303;SDS011;70693;48.680;8.890;2023-12-07T14:53:47;2.67;;;1.65;;
26303;SDS011;70693;48.680;8.890;2023-12-07T14:56:13;2.60;;;1.73;;